Time;durP1;ratioP1;P1;durP2;ratioP2;P2;SDS_P1;SDS_P2;PMS_P1;PMS_P2;Temp;Humidity;BMP_temperature;BMP_pressure;BME280_temperature;BME280_humidity;BME280_pressure;Samples;Min_cycle;Max_cycle;Signal;HPM_P1;HPM_P2
2023/08/27 00:01:08;;;;;;;3.00;2.10;;;14.70;99.90;;;;;;4985321;28;20035;-66
2023/08/27 00:03:34;;;;;;;5.18;2.53;;;14.70;99.90;;;;;;4985133;28;20423;-65
2023/08/27 00:06:00;;;;;;;3.42;2.13;;;14.70;99.90;;;;;;4982412;28;20038;-67
2023/08/27 00:08:25;;;;;;;5.13;2.53;;;14.70;99.90;;;;;;4988411;28;20023;-67
2023/08/27 00:10:57;;;;;;;9.63;2.60;;;14.70;99.90;;;;;;4983169;28;20088;-67
2023/08/27 00:13:22;;;;;;;8.10;1.77;;;14.60;99.90;;;;;;4980500;28;20027;-66
2023/08/27 00:15:48;;;;;;;3.28;1.75;;;14.60;99.90;;;;;;4984243;28;20448;-66
2023/08/27 00:18:13;;;;;;;5.28;1.75;;;14.60;99.90;;;;;;4976488;28;20030;-67
2023/08/27 00:20:41;;;;;;;10.52;2.90;;;14.60;99.90;;;;;;4978750;28;20030;-65
2023/08/27 00:23:08;;;;;;;6.00;2.15;;;14.60;99.90;;;;;;4983042;28;20037;-65
2023/08/27 00:25:34;;;;;;;7.28;2.10;;;14.60;99.90;;;;;;4985488;28;20030;-66
2023/08/27 00:28:00;;;;;;;2.63;1.90;;;14.50;99.90;;;;;;4957339;28;20508;-67
2023/08/27 00:30:25;;;;;;;9.80;1.70;;;14.50;99.90;;;;;;4984468;28;20042;-66
2023/08/27 00:32:51;;;;;;;2.60;1.83;;;14.50;99.90;;;;;;4983354;28;20463;-66
2023/08/27 00:35:16;;;;;;;3.75;1.98;;;14.40;99.90;;;;;;4987098;28;20026;-65
2023/08/27 00:37:42;;;;;;;4.00;2.20;;;14.40;99.90;;;;;;4977998;28;20046;-66
2023/08/27 00:40:08;;;;;;;3.22;2.03;;;14.40;99.90;;;;;;4982527;28;20049;-65
2023/08/27 00:42:34;;;;;;;10.25;2.00;;;14.40;99.90;;;;;;4979465;28;20054;-66
2023/08/27 00:44:59;;;;;;;5.72;1.88;;;14.30;99.90;;;;;;4977318;28;20109;-67
2023/08/27 00:47:25;;;;;;;1.90;1.52;;;14.30;99.90;;;;;;4978395;28;20030;-66
2023/08/27 00:49:51;;;;;;;2.80;1.98;;;14.30;99.90;;;;;;4982962;28;20140;-66
2023/08/27 00:52:19;;;;;;;17.50;2.50;;;14.30;99.90;;;;;;4988357;28;20037;-66
2023/08/27 00:54:45;;;;;;;4.60;2.10;;;14.20;99.90;;;;;;4986872;28;20034;-66
2023/08/27 00:57:12;;;;;;;9.15;2.20;;;14.20;99.90;;;;;;4993084;28;20026;-67
2023/08/27 00:59:38;;;;;;;4.30;2.20;;;14.10;99.90;;;;;;4993295;28;20476;-65
2023/08/27 01:02:04;;;;;;;3.50;2.42;;;14.00;99.90;;;;;;4991956;28;20029;-68
2023/08/27 01:04:30;;;;;;;5.18;2.30;;;13.90;99.90;;;;;;4989426;28;20076;-66
2023/08/27 01:07:04;;;;;;;7.57;2.55;;;13.90;99.90;;;;;;4990082;28;20447;-66
2023/08/27 01:10:00;;;;;;;6.38;2.42;;;13.80;99.90;;;;;;4980175;28;20032;-66
2023/08/27 01:12:40;;;;;;;3.97;2.08;;;13.70;99.90;;;;;;4977954;28;20114;-67
2023/08/27 01:15:07;;;;;;;4.35;2.05;;;13.70;99.90;;;;;;4975496;28;20038;-67
2023/08/27 01:17:35;;;;;;;4.95;2.70;;;13.70;99.90;;;;;;4995335;28;20026;-66
2023/08/27 01:20:05;;;;;;;7.90;2.47;;;13.70;99.90;;;;;;4974118;28;20031;-66
2023/08/27 01:22:30;;;;;;;9.32;2.17;;;13.70;99.90;;;;;;4979409;28;20022;-66
2023/08/27 01:24:56;;;;;;;3.53;2.20;;;13.70;99.90;;;;;;4976431;28;20080;-66
2023/08/27 01:27:29;;;;;;;6.10;2.45;;;13.70;99.90;;;;;;4979866;28;20959;-67
2023/08/27 01:30:02;;;;;;;3.13;2.28;;;13.60;99.90;;;;;;4971656;28;20043;-67
2023/08/27 01:32:38;;;;;;;5.68;2.58;;;13.60;99.90;;;;;;4980173;28;20031;-66
2023/08/27 01:35:04;;;;;;;4.13;2.75;;;13.50;99.90;;;;;;4981323;28;20077;-66
2023/08/27 01:37:30;;;;;;;4.75;2.50;;;13.50;99.90;;;;;;4982769;28;20068;-66
2023/08/27 01:40:02;;;;;;;2.90;1.90;;;13.50;99.90;;;;;;4982007;28;20034;-65
2023/08/27 01:42:28;;;;;;;4.97;2.30;;;13.40;99.90;;;;;;4987144;28;20018;-65
2023/08/27 01:44:56;;;;;;;3.63;2.05;;;13.40;99.90;;;;;;4987454;28;20366;-66
2023/08/27 01:47:21;;;;;;;4.43;2.35;;;13.50;99.90;;;;;;4989763;28;20032;-65
2023/08/27 01:49:49;;;;;;;3.35;2.30;;;13.40;99.90;;;;;;4984382;28;20034;-65
2023/08/27 01:52:14;;;;;;;4.13;2.65;;;13.50;99.90;;;;;;4988680;28;20143;-66
2023/08/27 01:54:40;;;;;;;4.40;2.15;;;13.50;99.90;;;;;;4989187;28;20030;-66
2023/08/27 01:57:05;;;;;;;6.75;2.40;;;13.50;99.90;;;;;;4989986;28;20053;-66
2023/08/27 01:59:31;;;;;;;4.75;2.58;;;13.50;99.90;;;;;;4990754;28;20018;-65
2023/08/27 02:01:57;;;;;;;4.95;2.42;;;13.40;99.90;;;;;;4991336;28;20033;-67
2023/08/27 02:04:22;;;;;;;5.10;2.45;;;13.50;99.90;;;;;;4989799;28;20562;-66
2023/08/27 02:06:48;;;;;;;3.55;2.20;;;13.50;99.90;;;;;;4988990;28;20053;-66
2023/08/27 02:09:15;;;;;;;2.90;2.20;;;13.50;99.90;;;;;;4988988;28;20033;-67
2023/08/27 02:11:41;;;;;;;3.67;2.20;;;13.50;99.90;;;;;;4986975;28;20034;-65
2023/08/27 02:14:07;;;;;;;5.38;2.28;;;13.60;99.90;;;;;;4987322;28;20034;-67
2023/08/27 02:16:34;;;;;;;6.35;2.28;;;13.50;99.90;;;;;;4990896;28;20088;-66
2023/08/27 02:18:59;;;;;;;4.78;1.95;;;13.50;99.90;;;;;;4989450;28;20026;-66
2023/08/27 02:21:25;;;;;;;6.03;2.13;;;13.50;99.90;;;;;;4988860;28;20045;-67
2023/08/27 02:23:51;;;;;;;5.55;1.95;;;13.50;99.90;;;;;;4989218;28;20034;-66
2023/08/27 02:26:16;;;;;;;5.53;1.95;;;13.50;99.90;;;;;;4988984;28;20027;-66
2023/08/27 02:28:42;;;;;;;4.75;2.05;;;13.50;99.90;;;;;;4968001;28;20140;-65
2023/08/27 02:31:08;;;;;;;2.13;1.50;;;13.50;99.90;;;;;;5002103;28;20031;-66
2023/08/27 02:33:34;;;;;;;3.38;1.80;;;13.50;99.90;;;;;;4987451;28;20728;-65
2023/08/27 02:36:00;;;;;;;3.17;1.80;;;13.60;99.90;;;;;;4989027;28;20034;-65
2023/08/27 02:38:26;;;;;;;3.78;1.85;;;13.60;99.90;;;;;;4985739;28;20026;-65
2023/08/27 02:40:51;;;;;;;2.65;1.80;;;13.70;99.90;;;;;;4986150;28;20104;-66
2023/08/27 02:43:17;;;;;;;4.20;1.83;;;13.60;99.90;;;;;;4989317;28;20088;-65
2023/08/27 02:45:43;;;;;;;2.92;1.40;;;13.60;99.90;;;;;;4985619;28;20023;-65
2023/08/27 02:48:08;;;;;;;3.70;2.10;;;13.60;99.90;;;;;;4984715;28;20022;-66
2023/08/27 02:50:34;;;;;;;4.10;1.92;;;13.60;99.90;;;;;;4984721;28;20045;-65
2023/08/27 02:52:59;;;;;;;3.40;1.27;;;13.50;99.90;;;;;;4986354;28;20033;-66
2023/08/27 02:55:31;;;;;;;2.35;1.85;;;13.50;99.90;;;;;;4985860;28;20026;-66
2023/08/27 02:57:57;;;;;;;5.07;2.05;;;13.40;99.90;;;;;;4987171;28;20097;-66
2023/08/27 03:00:23;;;;;;;3.50;1.85;;;13.30;99.90;;;;;;4990568;28;20109;-66
2023/08/27 03:02:49;;;;;;;2.53;1.70;;;13.30;99.90;;;;;;4985881;28;20110;-66
2023/08/27 03:05:16;;;;;;;5.75;2.08;;;13.20;99.90;;;;;;4989031;28;20085;-66
2023/08/27 03:07:41;;;;;;;4.00;1.80;;;13.10;99.90;;;;;;4989235;28;20031;-66
2023/08/27 03:10:07;;;;;;;3.03;1.73;;;13.10;99.90;;;;;;4989774;28;20468;-65
2023/08/27 03:12:33;;;;;;;2.80;2.03;;;13.10;99.90;;;;;;4987547;28;20033;-65
2023/08/27 03:14:58;;;;;;;2.65;2.00;;;13.10;99.90;;;;;;4984500;28;20384;-64
2023/08/27 03:17:24;;;;;;;3.30;1.90;;;13.00;99.90;;;;;;4988625;28;20022;-65
2023/08/27 03:19:49;;;;;;;2.53;1.83;;;13.00;99.90;;;;;;4984388;28;20031;-66
2023/08/27 03:22:15;;;;;;;3.30;1.83;;;13.10;99.90;;;;;;4985618;28;20957;-66
2023/08/27 03:24:40;;;;;;;3.05;1.65;;;13.10;99.90;;;;;;4988491;28;20030;-67
2023/08/27 03:27:07;;;;;;;8.13;1.95;;;13.10;99.90;;;;;;4987752;28;20034;-65
2023/08/27 03:29:32;;;;;;;3.88;1.75;;;13.00;99.90;;;;;;4989979;28;20058;-66
2023/08/27 03:31:58;;;;;;;4.53;1.73;;;13.00;99.90;;;;;;4989091;28;20546;-65
2023/08/27 03:34:24;;;;;;;7.32;2.13;;;12.90;99.90;;;;;;4984812;28;20527;-65
2023/08/27 03:36:49;;;;;;;2.90;1.90;;;12.90;99.90;;;;;;4987870;28;20040;-63
2023/08/27 03:39:15;;;;;;;2.67;1.90;;;12.90;99.90;;;;;;4985117;28;20598;-65
2023/08/27 03:41:41;;;;;;;2.72;1.90;;;12.90;99.90;;;;;;4988821;28;20041;-66
2023/08/27 03:44:06;;;;;;;5.28;2.03;;;12.90;99.90;;;;;;4987433;28;20030;-66
2023/08/27 03:46:32;;;;;;;2.33;1.52;;;12.90;99.90;;;;;;4989825;28;20031;-64
2023/08/27 03:49:01;;;;;;;5.10;1.85;;;13.00;99.90;;;;;;4986823;28;20073;-66
2023/08/27 03:51:28;;;;;;;2.60;1.60;;;12.90;99.90;;;;;;4986798;28;20034;-66
2023/08/27 03:53:55;;;;;;;2.80;1.55;;;12.90;99.90;;;;;;4988920;28;20121;-65
2023/08/27 03:56:21;;;;;;;4.97;1.90;;;12.90;99.90;;;;;;4988577;28;20093;-65
2023/08/27 03:58:47;;;;;;;3.28;2.13;;;12.90;99.90;;;;;;4989869;28;20074;-65
2023/08/27 04:01:13;;;;;;;2.72;1.40;;;12.90;99.90;;;;;;4989195;28;20023;-65
2023/08/27 04:03:38;;;;;;;3.50;1.52;;;12.90;99.90;;;;;;4989580;28;20034;-66
2023/08/27 04:06:07;;;;;;;3.67;1.80;;;12.90;99.90;;;;;;4989308;28;20030;-66
2023/08/27 04:08:33;;;;;;;4.38;1.73;;;12.90;99.90;;;;;;4988476;28;20018;-66
2023/08/27 04:11:01;;;;;;;3.53;1.50;;;12.90;99.90;;;;;;4987340;28;20396;-67
2023/08/27 04:13:26;;;;;;;4.85;1.90;;;12.80;99.90;;;;;;4970876;28;20064;-67
2023/08/27 04:16:11;;;;;;;2.78;1.85;;;12.80;99.90;;;;;;4989402;28;20555;-67
2023/08/27 04:18:37;;;;;;;3.40;1.83;;;12.90;99.90;;;;;;4985955;28;20054;-66
2023/08/27 04:21:03;;;;;;;2.83;1.70;;;12.80;99.90;;;;;;4987462;28;20057;-66
2023/08/27 04:23:29;;;;;;;6.07;1.88;;;12.90;99.90;;;;;;4984850;28;20058;-66
2023/08/27 04:25:55;;;;;;;4.85;1.60;;;12.80;99.90;;;;;;4985395;28;20400;-66
2023/08/27 04:28:21;;;;;;;6.20;1.88;;;12.80;99.90;;;;;;4989659;28;20474;-66
2023/08/27 04:30:48;;;;;;;3.08;1.50;;;12.80;99.90;;;;;;4990947;28;20057;-66
2023/08/27 04:33:14;;;;;;;3.85;1.75;;;12.80;99.90;;;;;;4990499;28;20035;-66
2023/08/27 04:35:40;;;;;;;5.93;1.77;;;12.90;99.90;;;;;;4987129;28;20318;-66
2023/08/27 04:38:06;;;;;;;2.30;1.70;;;12.90;99.90;;;;;;4991414;28;20026;-65
2023/08/27 04:40:32;;;;;;;5.10;2.25;;;12.90;99.90;;;;;;4990518;28;20038;-65
2023/08/27 04:42:58;;;;;;;3.42;1.95;;;13.00;99.90;;;;;;4991461;28;20080;-66
2023/08/27 04:45:24;;;;;;;4.47;2.10;;;13.00;99.90;;;;;;4989209;28;20105;-66
2023/08/27 04:47:50;;;;;;;3.97;1.95;;;13.20;99.90;;;;;;4984993;28;20130;-65
2023/08/27 04:50:15;;;;;;;2.47;1.40;;;13.20;99.90;;;;;;4981328;28;20054;-66
2023/08/27 04:52:41;;;;;;;4.45;1.60;;;13.30;99.90;;;;;;4983565;28;20470;-66
2023/08/27 04:55:07;;;;;;;3.63;1.70;;;13.30;99.90;;;;;;4980112;28;20030;-65
2023/08/27 04:57:34;;;;;;;2.15;1.45;;;13.40;99.90;;;;;;4987730;28;20130;-66
2023/08/27 05:00:03;;;;;;;3.90;1.55;;;13.40;99.90;;;;;;4981465;28;20022;-65
2023/08/27 05:02:28;;;;;;;3.53;1.52;;;13.50;99.90;;;;;;4984482;28;20022;-65
2023/08/27 05:04:54;;;;;;;2.38;1.67;;;13.60;99.90;;;;;;4989500;28;20033;-65
2023/08/27 05:07:20;;;;;;;1.92;1.42;;;13.60;99.90;;;;;;4991285;28;20042;-64
2023/08/27 05:09:46;;;;;;;2.72;1.40;;;13.70;99.90;;;;;;4992914;28;20034;-66
2023/08/27 05:12:11;;;;;;;2.30;1.42;;;13.70;99.90;;;;;;4990428;28;20372;-65
2023/08/27 05:14:37;;;;;;;1.70;1.00;;;13.80;99.90;;;;;;4987951;28;20053;-66
2023/08/27 05:17:03;;;;;;;5.63;1.77;;;13.80;99.90;;;;;;4989191;28;20369;-65
2023/08/27 05:19:28;;;;;;;4.78;1.60;;;13.80;99.90;;;;;;4969248;28;20049;-66
2023/08/27 05:21:54;;;;;;;5.90;1.75;;;13.90;99.90;;;;;;4983069;28;20026;-65
2023/08/27 05:24:20;;;;;;;2.13;1.33;;;14.00;99.90;;;;;;4980710;28;20050;-66
2023/08/27 05:26:45;;;;;;;2.65;1.50;;;14.00;99.90;;;;;;4986803;28;20070;-63
2023/08/27 05:29:11;;;;;;;1.63;1.10;;;14.10;99.90;;;;;;4992395;28;20026;-66
2023/08/27 05:31:36;;;;;;;3.05;1.35;;;14.10;99.90;;;;;;4991475;28;20034;-66
2023/08/27 05:34:02;;;;;;;2.80;1.70;;;14.20;99.90;;;;;;4990917;28;20037;-65
2023/08/27 05:36:28;;;;;;;7.75;1.40;;;14.20;99.90;;;;;;4989133;28;20526;-66
2023/08/27 05:38:53;;;;;;;3.53;1.55;;;14.30;99.90;;;;;;4989994;28;20023;-65
2023/08/27 05:41:19;;;;;;;2.83;1.10;;;14.50;99.90;;;;;;4990221;28;20041;-64
2023/08/27 05:43:44;;;;;;;1.60;1.48;;;14.50;99.90;;;;;;4991131;28;20185;-65
2023/08/27 05:46:10;;;;;;;1.75;1.40;;;14.60;99.90;;;;;;4990328;28;20433;-66
2023/08/27 05:48:37;;;;;;;3.42;1.58;;;14.70;99.90;;;;;;4989037;28;20086;-66
2023/08/27 05:51:03;;;;;;;4.68;1.52;;;14.80;99.90;;;;;;4985657;28;20500;-66
2023/08/27 05:53:29;;;;;;;5.35;1.30;;;14.80;99.90;;;;;;4991054;28;20030;-65
2023/08/27 05:55:55;;;;;;;6.88;1.52;;;14.90;99.90;;;;;;4986349;28;20398;-66
2023/08/27 05:58:20;;;;;;;2.53;1.05;;;14.90;99.90;;;;;;4985747;28;20395;-66
2023/08/27 06:00:46;;;;;;;4.45;1.80;;;15.00;99.90;;;;;;4981410;28;20026;-66
2023/08/27 06:03:11;;;;;;;1.30;1.10;;;15.10;99.90;;;;;;4979207;28;20026;-66
2023/08/27 06:05:37;;;;;;;6.25;1.77;;;15.20;99.90;;;;;;4987618;28;20034;-66
2023/08/27 06:08:04;;;;;;;2.33;1.38;;;15.30;99.90;;;;;;4982875;28;20425;-66
2023/08/27 06:10:34;;;;;;;2.17;1.35;;;15.30;99.90;;;;;;4989015;28;20492;-67
2023/08/27 06:12:59;;;;;;;2.67;1.52;;;15.40;99.90;;;;;;5001676;28;20109;-66
2023/08/27 06:15:28;;;;;;;2.58;1.38;;;15.50;99.90;;;;;;4990350;28;21343;-66
2023/08/27 06:17:54;;;;;;;1.33;0.90;;;15.50;99.90;;;;;;4976154;28;20029;-66
2023/08/27 06:20:20;;;;;;;2.25;1.42;;;15.60;99.90;;;;;;4982484;28;20050;-66
2023/08/27 06:22:46;;;;;;;2.17;1.25;;;15.70;99.90;;;;;;4985028;28;20068;-66
2023/08/27 06:25:11;;;;;;;5.70;1.35;;;15.70;99.90;;;;;;4984096;28;20480;-67
2023/08/27 06:27:38;;;;;;;3.55;1.52;;;15.70;99.90;;;;;;4980771;28;20034;-65
2023/08/27 06:30:04;;;;;;;4.15;1.30;;;15.70;99.90;;;;;;4981009;28;20034;-66
2023/08/27 06:32:31;;;;;;;1.95;1.10;;;15.70;99.90;;;;;;4984726;28;20030;-66
2023/08/27 06:34:57;;;;;;;4.68;1.38;;;15.70;99.90;;;;;;4986766;28;20049;-66
2023/08/27 06:37:22;;;;;;;3.22;1.30;;;15.70;99.90;;;;;;4983315;28;20511;-65
2023/08/27 06:39:49;;;;;;;5.20;1.48;;;15.70;99.90;;;;;;4980970;28;20419;-66
2023/08/27 06:42:15;;;;;;;2.55;1.35;;;15.80;99.90;;;;;;4981254;28;20621;-66
2023/08/27 06:44:41;;;;;;;1.10;1.00;;;15.90;99.90;;;;;;4978160;28;20090;-65
2023/08/27 06:47:07;;;;;;;4.07;1.70;;;16.20;99.90;;;;;;4986310;28;20050;-66
2023/08/27 06:49:32;;;;;;;2.83;1.05;;;16.40;99.90;;;;;;4984238;28;20030;-66
2023/08/27 06:51:58;;;;;;;4.10;1.40;;;16.50;99.90;;;;;;4983309;28;20497;-66
2023/08/27 06:54:23;;;;;;;3.03;1.52;;;16.50;99.90;;;;;;4975002;28;20435;-65
2023/08/27 06:56:49;;;;;;;3.40;1.35;;;16.40;99.90;;;;;;4982314;28;20113;-67
2023/08/27 06:59:16;;;;;;;2.25;1.40;;;16.40;99.90;;;;;;4987864;28;20030;-67
2023/08/27 07:01:42;;;;;;;1.75;1.35;;;16.30;99.90;;;;;;4982060;28;20027;-66
2023/08/27 07:04:07;;;;;;;4.47;1.30;;;16.30;99.90;;;;;;4987060;28;20084;-67
2023/08/27 07:06:33;;;;;;;1.77;1.35;;;16.30;99.90;;;;;;4976642;28;20027;-66
2023/08/27 07:08:59;;;;;;;3.63;1.40;;;16.30;99.90;;;;;;4984541;28;20512;-67
2023/08/27 07:11:25;;;;;;;1.70;1.40;;;16.40;99.90;;;;;;4987491;28;20050;-66
2023/08/27 07:13:51;;;;;;;4.03;1.63;;;16.50;99.90;;;;;;4989915;28;20786;-65
2023/08/27 07:16:17;;;;;;;2.83;1.08;;;16.50;99.90;;;;;;4978474;28;20117;-66
2023/08/27 07:18:43;;;;;;;5.68;1.10;;;16.50;99.90;;;;;;4970492;28;20053;-65
2023/08/27 07:21:08;;;;;;;4.20;1.05;;;16.60;99.90;;;;;;4985114;28;20098;-66
2023/08/27 07:23:35;;;;;;;2.25;1.63;;;16.60;99.90;;;;;;4975190;28;20069;-66
2023/08/27 07:26:01;;;;;;;1.83;1.10;;;16.70;99.90;;;;;;4980481;28;20472;-65
2023/08/27 07:28:26;;;;;;;2.78;1.20;;;16.80;99.90;;;;;;4973657;28;20075;-66
2023/08/27 07:30:52;;;;;;;3.28;1.20;;;17.20;99.90;;;;;;4976902;28;20105;-66
2023/08/27 07:33:18;;;;;;;1.55;0.98;;;17.70;99.90;;;;;;4980092;28;20065;-66
2023/08/27 07:35:43;;;;;;;2.97;1.02;;;18.20;99.90;;;;;;4978243;28;20847;-65
2023/08/27 07:38:09;;;;;;;3.50;0.80;;;18.50;99.90;;;;;;4985591;28;20030;-67
2023/08/27 07:40:38;;;;;;;2.38;0.98;;;18.50;99.90;;;;;;4981997;28;20046;-66
2023/08/27 07:43:04;;;;;;;5.07;1.10;;;18.60;99.90;;;;;;4983443;28;20065;-67
2023/08/27 07:45:30;;;;;;;4.13;1.75;;;18.70;99.90;;;;;;4981528;28;20041;-66
2023/08/27 07:47:56;;;;;;;1.48;1.15;;;18.70;99.90;;;;;;4982003;28;20049;-66
2023/08/27 07:50:21;;;;;;;3.53;1.20;;;18.90;99.90;;;;;;4978022;28;20035;-66
2023/08/27 07:52:48;;;;;;;3.65;1.27;;;18.90;99.90;;;;;;4976993;28;20034;-66
2023/08/27 07:55:14;;;;;;;3.45;1.30;;;19.00;99.90;;;;;;4980729;28;20026;-65
2023/08/27 07:57:40;;;;;;;1.70;1.00;;;19.20;99.90;;;;;;4982246;28;20061;-67
2023/08/27 08:00:06;;;;;;;2.05;1.30;;;19.70;99.90;;;;;;4980162;28;20065;-66
2023/08/27 08:02:32;;;;;;;2.85;1.23;;;19.70;99.90;;;;;;4980027;28;20455;-66
2023/08/27 08:04:58;;;;;;;2.60;1.00;;;20.30;99.90;;;;;;4983269;28;20031;-66
2023/08/27 08:07:25;;;;;;;2.75;0.82;;;20.80;99.90;;;;;;4986666;28;20037;-66
2023/08/27 08:09:51;;;;;;;1.70;0.98;;;21.30;99.90;;;;;;4990520;28;20330;-65
2023/08/27 08:12:16;;;;;;;1.55;1.17;;;21.30;99.90;;;;;;4990177;28;20088;-67
2023/08/27 08:14:42;;;;;;;4.63;1.00;;;21.60;99.90;;;;;;4992337;28;20030;-66
2023/08/27 08:17:08;;;;;;;1.98;0.63;;;21.70;99.90;;;;;;4989614;28;20366;-66
2023/08/27 08:19:34;;;;;;;0.88;0.60;;;21.90;99.90;;;;;;4963930;28;20054;-66
2023/08/27 08:22:00;;;;;;;1.02;0.70;;;22.10;99.90;;;;;;4984204;28;20046;-66
2023/08/27 08:24:26;;;;;;;2.05;0.85;;;21.80;99.90;;;;;;4986849;28;20026;-67
2023/08/27 08:26:52;;;;;;;2.30;1.00;;;21.50;99.90;;;;;;4987752;28;20144;-67
2023/08/27 08:29:20;;;;;;;2.45;1.10;;;21.30;99.90;;;;;;4985858;28;20485;-67
2023/08/27 08:31:45;;;;;;;2.67;1.13;;;21.10;99.90;;;;;;4984608;28;20046;-67
2023/08/27 08:34:11;;;;;;;1.17;0.80;;;21.00;99.90;;;;;;4980311;28;20039;-66
2023/08/27 08:36:36;;;;;;;5.35;1.15;;;20.70;99.90;;;;;;4983536;28;20122;-65
2023/08/27 08:39:02;;;;;;;2.55;0.80;;;20.70;99.90;;;;;;4984793;28;20030;-66
2023/08/27 08:41:28;;;;;;;4.85;0.93;;;20.80;99.90;;;;;;4980508;28;20027;-65
2023/08/27 08:44:16;;;;;;;5.57;1.00;;;21.00;99.90;;;;;;4986214;28;20543;-66
2023/08/27 08:46:43;;;;;;;3.47;0.90;;;21.00;99.90;;;;;;4984446;28;20666;-67
2023/08/27 08:49:14;;;;;;;1.05;0.70;;;21.10;99.90;;;;;;4999465;28;20398;-67
2023/08/27 08:51:40;;;;;;;2.63;1.02;;;21.40;99.90;;;;;;4973591;28;20030;-67
2023/08/27 08:54:10;;;;;;;1.55;0.75;;;21.20;99.90;;;;;;4984352;28;20022;-67
2023/08/27 08:56:39;;;;;;;1.77;0.90;;;21.20;99.90;;;;;;4987795;28;20031;-66
2023/08/27 08:59:06;;;;;;;0.88;0.80;;;21.30;99.90;;;;;;4986297;28;20384;-67
2023/08/27 09:01:32;;;;;;;2.88;1.13;;;21.70;99.90;;;;;;4984189;28;20031;-67
2023/08/27 09:03:59;;;;;;;2.30;0.80;;;21.90;99.90;;;;;;4980493;28;20028;-65
2023/08/27 09:06:26;;;;;;;3.10;1.00;;;21.80;99.90;;;;;;4980816;28;20483;-66
2023/08/27 09:08:52;;;;;;;2.92;1.30;;;21.80;99.90;;;;;;4986027;28;20397;-67
2023/08/27 09:11:19;;;;;;;1.73;0.60;;;21.40;99.90;;;;;;4983119;28;20105;-66
2023/08/27 09:13:45;;;;;;;2.80;0.70;;;21.30;99.90;;;;;;4989907;28;20042;-66
2023/08/27 09:16:11;;;;;;;3.95;1.00;;;20.90;99.90;;;;;;4983754;28;20034;-67
2023/08/27 09:18:37;;;;;;;2.30;0.90;;;20.90;99.90;;;;;;4974425;28;20053;-67
2023/08/27 09:21:03;;;;;;;1.00;0.90;;;20.70;99.90;;;;;;4980179;28;20485;-66
2023/08/27 09:23:29;;;;;;;2.72;1.02;;;20.40;99.90;;;;;;4984581;28;20039;-66
2023/08/27 09:25:59;;;;;;;1.35;0.65;;;20.30;99.90;;;;;;4990852;28;20033;-66
2023/08/27 09:28:25;;;;;;;2.25;0.90;;;20.30;99.90;;;;;;4992016;28;20042;-66
2023/08/27 09:30:51;;;;;;;2.90;0.95;;;20.30;99.90;;;;;;4984058;28;20409;-66
2023/08/27 09:33:17;;;;;;;3.00;1.33;;;20.30;99.90;;;;;;4987034;28;20032;-66
2023/08/27 09:35:43;;;;;;;2.72;0.98;;;20.20;99.90;;;;;;4979493;28;20038;-67
2023/08/27 09:38:14;;;;;;;1.60;0.90;;;20.30;99.90;;;;;;4980839;28;20408;-66
2023/08/27 09:40:40;;;;;;;2.72;1.00;;;20.30;99.90;;;;;;4988978;28;20041;-65
2023/08/27 09:43:07;;;;;;;4.93;2.05;;;20.50;99.90;;;;;;4985608;28;20503;-67
2023/08/27 09:45:34;;;;;;;1.52;0.93;;;20.40;99.90;;;;;;4988353;28;20038;-67
2023/08/27 09:48:00;;;;;;;11.95;1.00;;;20.20;99.90;;;;;;4989081;28;20026;-66
2023/08/27 09:50:28;;;;;;;3.58;1.70;;;20.40;99.90;;;;;;4989341;28;20392;-66
2023/08/27 09:53:07;;;;;;;2.55;0.88;;;20.30;99.90;;;;;;4985285;28;20026;-67
2023/08/27 09:55:34;;;;;;;2.75;0.93;;;20.40;99.90;;;;;;4988084;28;20046;-67
2023/08/27 09:57:59;;;;;;;2.70;1.25;;;20.40;99.90;;;;;;4987559;28;20027;-66
2023/08/27 10:00:27;;;;;;;2.67;1.00;;;20.20;99.90;;;;;;4988636;28;20029;-67
2023/08/27 10:02:53;;;;;;;2.45;1.10;;;20.10;99.90;;;;;;4985635;28;20030;-66
2023/08/27 10:05:27;;;;;;;3.97;1.40;;;20.30;99.90;;;;;;4986881;28;20023;-65
2023/08/27 10:07:57;;;;;;;;;;;20.20;99.90;;;;;;4989844;28;20034;-64
2023/08/27 10:10:23;;;;;;;3.13;1.42;;;20.40;99.90;;;;;;4990360;28;19913;-66
2023/08/27 10:12:49;;;;;;;6.78;1.33;;;20.40;99.90;;;;;;4990324;28;20081;-66
2023/08/27 10:15:16;;;;;;;1.75;0.90;;;20.40;99.90;;;;;;4988689;28;20054;-66
2023/08/27 10:17:42;;;;;;;1.80;1.00;;;20.60;99.90;;;;;;4991738;28;20026;-67
2023/08/27 10:20:09;;;;;;;2.95;1.00;;;20.80;99.90;;;;;;4977110;28;20050;-66
2023/08/27 10:22:36;;;;;;;5.13;1.20;;;20.70;99.90;;;;;;4986660;28;20404;-67
2023/08/27 10:25:04;;;;;;;1.90;0.80;;;20.80;99.90;;;;;;4981266;28;20635;-66
2023/08/27 10:27:30;;;;;;;4.32;0.93;;;21.10;99.90;;;;;;4984306;28;20041;-65
2023/08/27 10:29:58;;;;;;;3.42;1.20;;;21.30;99.90;;;;;;4989642;28;20023;-66
2023/08/27 10:32:23;;;;;;;2.80;1.10;;;21.70;99.90;;;;;;4991211;28;20034;-67
2023/08/27 10:34:50;;;;;;;3.83;1.00;;;21.90;99.90;;;;;;4988512;28;20033;-66
2023/08/27 10:37:18;;;;;;;3.65;1.15;;;22.40;99.90;;;;;;4982093;28;20062;-66
2023/08/27 10:39:44;;;;;;;3.90;1.30;;;22.90;99.90;;;;;;4977634;28;20026;-67
2023/08/27 10:42:31;;;;;;;2.15;1.40;;;23.10;99.30;;;;;;4987898;28;20027;-67
2023/08/27 10:45:20;;;;;;;1.85;0.82;;;23.00;99.90;;;;;;4990057;28;20488;-66
2023/08/27 10:48:04;;;;;;;5.80;0.90;;;22.50;99.90;;;;;;4985013;28;20393;-66
2023/08/27 10:50:47;;;;;;;3.75;1.00;;;22.80;99.90;;;;;;4981356;28;20609;-67
2023/08/27 10:53:15;;;;;;;1.83;0.77;;;22.90;99.40;;;;;;4989279;28;20027;-66
2023/08/27 10:55:45;;;;;;;1.63;0.70;;;22.90;99.90;;;;;;4981985;28;20046;-67
2023/08/27 10:58:18;;;;;;;1.73;0.82;;;23.00;99.90;;;;;;4984921;28;20557;-66
2023/08/27 11:01:07;;;;;;;2.35;0.80;;;23.50;98.20;;;;;;4986685;28;20022;-67
2023/08/27 11:03:58;;;;;;;1.08;0.70;;;23.70;98.10;;;;;;4978953;28;20109;-66
2023/08/27 11:06:51;;;;;;;2.70;0.70;;;23.80;96.80;;;;;;4986669;28;20027;-67
2023/08/27 11:09:25;;;;;;;2.13;0.80;;;23.60;94.50;;;;;;4977891;28;20038;-67
2023/08/27 11:11:55;;;;;;;1.75;0.77;;;23.20;97.50;;;;;;4984326;28;20041;-67
2023/08/27 11:14:23;;;;;;;1.52;0.95;;;22.80;98.00;;;;;;4974058;28;20038;-67
2023/08/27 11:16:55;;;;;;;1.00;0.50;;;22.30;99.20;;;;;;4974983;28;20022;-67
2023/08/27 11:19:32;;;;;;;1.35;0.77;;;22.20;99.60;;;;;;4961545;28;21828;-67
2023/08/27 11:22:04;;;;;;;1.20;0.70;;;22.20;99.90;;;;;;4985987;28;20034;-66
2023/08/27 11:24:30;;;;;;;3.77;1.00;;;22.40;98.80;;;;;;4989551;28;20018;-66
2023/08/27 11:26:59;;;;;;;2.60;0.80;;;22.60;97.80;;;;;;4985674;28;20108;-66
2023/08/27 11:29:26;;;;;;;1.67;0.98;;;22.80;96.40;;;;;;4988205;28;20033;-64
2023/08/27 11:31:51;;;;;;;1.90;1.10;;;22.70;96.80;;;;;;4983879;28;20654;-67
2023/08/27 11:34:17;;;;;;;1.65;1.02;;;22.50;96.50;;;;;;4983370;28;20133;-66
2023/08/27 11:36:44;;;;;;;1.40;0.77;;;22.60;97.70;;;;;;4979256;28;20034;-67
2023/08/27 11:39:17;;;;;;;1.27;0.52;;;22.70;98.10;;;;;;4978956;28;20050;-65
2023/08/27 11:41:46;;;;;;;1.52;0.75;;;23.10;96.80;;;;;;4984324;28;20169;-68
2023/08/27 11:44:12;;;;;;;1.98;0.90;;;23.20;97.10;;;;;;4980871;28;20022;-67
2023/08/27 11:46:39;;;;;;;2.55;0.60;;;23.20;95.80;;;;;;4985510;28;20046;-64
2023/08/27 11:49:06;;;;;;;2.15;0.80;;;23.30;96.60;;;;;;4981879;28;20404;-66
2023/08/27 11:51:33;;;;;;;0.57;0.50;;;23.30;95.90;;;;;;4985288;28;20027;-67
2023/08/27 11:53:58;;;;;;;2.03;0.70;;;23.50;95.60;;;;;;4983442;28;20045;-67
2023/08/27 11:56:25;;;;;;;2.00;0.70;;;23.50;96.00;;;;;;4988035;28;20038;-67
2023/08/27 11:58:52;;;;;;;0.82;0.50;;;23.80;96.00;;;;;;4974787;28;20144;-67
2023/08/27 12:01:20;;;;;;;1.90;0.82;;;23.80;94.50;;;;;;5001907;28;20026;-66
2023/08/27 12:03:51;;;;;;;1.55;0.80;;;23.60;94.90;;;;;;4988279;28;20022;-67
2023/08/27 12:06:24;;;;;;;2.17;1.05;;;23.00;95.20;;;;;;4993669;28;20026;-67
2023/08/27 12:08:54;;;;;;;1.27;0.60;;;22.70;94.00;;;;;;4997826;28;20492;-67
2023/08/27 12:11:27;;;;;;;1.80;1.17;;;22.80;96.50;;;;;;5000544;28;20030;-66
2023/08/27 12:13:58;;;;;;;1.77;0.90;;;22.80;96.10;;;;;;5003381;28;20029;-67
2023/08/27 12:16:30;;;;;;;2.45;0.70;;;22.80;95.60;;;;;;4998436;28;20030;-66
2023/08/27 12:19:11;;;;;;;4.15;0.98;;;22.80;96.60;;;;;;5005389;28;20041;-66
2023/08/27 12:21:55;;;;;;;2.45;1.00;;;22.70;95.30;;;;;;5003018;28;20024;-66
2023/08/27 12:24:40;;;;;;;2.20;0.90;;;22.70;96.30;;;;;;4997561;28;20053;-66
2023/08/27 12:27:10;;;;;;;1.08;0.70;;;22.60;96.60;;;;;;5003719;28;20022;-66
2023/08/27 12:29:38;;;;;;;2.95;1.10;;;22.80;96.10;;;;;;5001055;28;20040;-67
2023/08/27 12:32:11;;;;;;;2.53;0.85;;;22.90;96.40;;;;;;5002196;28;20014;-67
2023/08/27 12:34:42;;;;;;;2.95;0.70;;;23.00;94.70;;;;;;4997878;28;20038;-66
2023/08/27 12:37:09;;;;;;;2.58;0.80;;;22.80;96.10;;;;;;5004495;28;20022;-66
2023/08/27 12:39:37;;;;;;;1.42;0.82;;;22.80;95.50;;;;;;5001675;28;20033;-66
2023/08/27 12:42:04;;;;;;;3.28;0.60;;;22.90;95.40;;;;;;4996160;28;20156;-66
2023/08/27 12:44:31;;;;;;;1.48;1.08;;;23.00;94.60;;;;;;5001464;28;20510;-67
2023/08/27 12:46:56;;;;;;;2.28;0.80;;;23.00;94.80;;;;;;4998410;28;20399;-66
2023/08/27 12:49:22;;;;;;;2.03;0.85;;;22.70;93.50;;;;;;5006490;28;20060;-67